sensor_id;sensor_type;location;lat;lon;timestamp;pressure;altitude;pressure_sealevel;temperature;humidity
60049;BME280;66154;45.544;6.756;2024-01-27T00:03:11;88302.91;;;4.67;73.64
60049;BME280;66154;45.544;6.756;2024-01-27T00:08:12;88295.00;;;4.63;73.57
60049;BME280;66154;45.544;6.756;2024-01-27T00:13:12;88289.41;;;4.61;73.97
60049;BME280;66154;45.544;6.756;2024-01-27T00:18:15;88287.91;;;4.60;73.24
60049;BME280;66154;45.544;6.756;2024-01-27T00:23:16;88278.19;;;4.57;72.34
60049;BME280;66154;45.544;6.756;2024-01-27T00:28:17;88274.47;;;4.54;73.03
60049;BME280;66154;45.544;6.756;2024-01-27T00:33:17;88266.59;;;4.51;73.27
60049;BME280;66154;45.544;6.756;2024-01-27T00:38:18;88274.03;;;4.49;73.10
60049;BME280;66154;45.544;6.756;2024-01-27T00:43:18;88279.97;;;4.49;73.21
60049;BME280;66154;45.544;6.756;2024-01-27T00:48:19;88270.66;;;4.48;72.40
60049;BME280;66154;45.544;6.756;2024-01-27T00:53:20;88276.91;;;4.44;72.87
60049;BME280;66154;45.544;6.756;2024-01-27T00:58:20;88277.50;;;4.34;73.74
60049;BME280;66154;45.544;6.756;2024-01-27T01:03:21;88284.88;;;4.28;73.28
60049;BME280;66154;45.544;6.756;2024-01-27T01:08:22;88278.16;;;4.24;73.30
60049;BME280;66154;45.544;6.756;2024-01-27T01:13:22;88275.50;;;4.20;73.18
60049;BME280;66154;45.544;6.756;2024-01-27T01:18:23;88281.78;;;4.19;73.42
60049;BME280;66154;45.544;6.756;2024-01-27T01:23:23;88286.22;;;4.19;73.38
60049;BME280;66154;45.544;6.756;2024-01-27T01:28:24;88293.63;;;4.17;73.02
60049;BME280;66154;45.544;6.756;2024-01-27T01:33:24;88291.03;;;4.17;72.26
60049;BME280;66154;45.544;6.756;2024-01-27T01:38:25;88290.34;;;4.20;72.95
60049;BME280;66154;45.544;6.756;2024-01-27T01:43:25;88295.97;;;4.22;74.00
60049;BME280;66154;45.544;6.756;2024-01-27T01:48:26;88288.16;;;4.22;73.65
60049;BME280;66154;45.544;6.756;2024-01-27T01:53:26;88284.38;;;4.19;74.02
60049;BME280;66154;45.544;6.756;2024-01-27T01:58:28;88291.44;;;4.19;72.64
60049;BME280;66154;45.544;6.756;2024-01-27T02:03:34;88280.13;;;4.08;72.97
60049;BME280;66154;45.544;6.756;2024-01-27T02:08:34;88275.47;;;3.94;73.30
60049;BME280;66154;45.544;6.756;2024-01-27T02:13:35;88292.38;;;3.81;72.45
60049;BME280;66154;45.544;6.756;2024-01-27T02:18:36;88287.69;;;3.67;72.22
60049;BME280;66154;45.544;6.756;2024-01-27T02:23:36;88276.31;;;3.53;71.94
60049;BME280;66154;45.544;6.756;2024-01-27T02:28:37;88281.34;;;3.42;74.38
60049;BME280;66154;45.544;6.756;2024-01-27T02:33:37;88274.09;;;3.32;72.60
60049;BME280;66154;45.544;6.756;2024-01-27T02:38:38;88281.75;;;3.22;71.81
60049;BME280;66154;45.544;6.756;2024-01-27T02:43:40;88280.47;;;3.12;72.68
60049;BME280;66154;45.544;6.756;2024-01-27T02:48:41;88266.19;;;3.03;71.68
60049;BME280;66154;45.544;6.756;2024-01-27T02:53:42;88279.38;;;2.94;71.80
60049;BME280;66154;45.544;6.756;2024-01-27T02:58:43;88278.09;;;2.85;71.86
60049;BME280;66154;45.544;6.756;2024-01-27T03:03:43;88270.09;;;2.74;72.33
60049;BME280;66154;45.544;6.756;2024-01-27T03:08:44;88275.56;;;2.69;71.91
60049;BME280;66154;45.544;6.756;2024-01-27T03:13:44;88278.50;;;2.67;72.25
60049;BME280;66154;45.544;6.756;2024-01-27T03:18:45;88279.25;;;2.68;74.30
60049;BME280;66154;45.544;6.756;2024-01-27T03:23:46;88266.59;;;2.66;73.03
60049;BME280;66154;45.544;6.756;2024-01-27T03:28:46;88277.75;;;2.67;71.85
60049;BME280;66154;45.544;6.756;2024-01-27T03:33:47;88276.97;;;2.66;72.87
60049;BME280;66154;45.544;6.756;2024-01-27T03:38:47;88268.13;;;2.67;72.36
60049;BME280;66154;45.544;6.756;2024-01-27T03:43:48;88268.47;;;2.66;73.24
60049;BME280;66154;45.544;6.756;2024-01-27T03:48:49;88268.06;;;2.64;72.55
60049;BME280;66154;45.544;6.756;2024-01-27T03:53:49;88274.59;;;2.58;72.66
60049;BME280;66154;45.544;6.756;2024-01-27T03:58:49;88271.44;;;2.49;72.50
60049;BME280;66154;45.544;6.756;2024-01-27T04:03:50;88281.28;;;2.40;72.10
60049;BME280;66154;45.544;6.756;2024-01-27T04:08:50;88280.72;;;2.31;72.96
60049;BME280;66154;45.544;6.756;2024-01-27T04:13:51;88282.44;;;2.23;72.01
60049;BME280;66154;45.544;6.756;2024-01-27T04:18:51;88277.50;;;2.18;72.48
60049;BME280;66154;45.544;6.756;2024-01-27T04:23:52;88280.44;;;2.17;72.85
60049;BME280;66154;45.544;6.756;2024-01-27T04:28:53;88286.97;;;2.11;72.13
60049;BME280;66154;45.544;6.756;2024-01-27T04:33:53;88286.41;;;2.02;71.80
60049;BME280;66154;45.544;6.756;2024-01-27T04:38:54;88282.56;;;1.96;72.21
60049;BME280;66154;45.544;6.756;2024-01-27T04:43:54;88282.50;;;1.92;72.66
60049;BME280;66154;45.544;6.756;2024-01-27T04:48:56;88278.72;;;1.90;72.75
60049;BME280;66154;45.544;6.756;2024-01-27T04:53:57;88289.44;;;1.88;73.13
60049;BME280;66154;45.544;6.756;2024-01-27T04:58:57;88283.50;;;1.88;72.95
60049;BME280;66154;45.544;6.756;2024-01-27T05:03:58;88276.81;;;1.87;72.56
60049;BME280;66154;45.544;6.756;2024-01-27T05:08:58;88289.38;;;1.84;72.93
60049;BME280;66154;45.544;6.756;2024-01-27T05:13:59;88291.88;;;1.81;72.53
60049;BME280;66154;45.544;6.756;2024-01-27T05:19:00;88295.13;;;1.78;72.71
60049;BME280;66154;45.544;6.756;2024-01-27T05:24:01;88293.22;;;1.75;71.92
60049;BME280;66154;45.544;6.756;2024-01-27T05:29:02;88302.41;;;1.72;71.96
60049;BME280;66154;45.544;6.756;2024-01-27T05:34:02;88297.56;;;1.71;72.01
60049;BME280;66154;45.544;6.756;2024-01-27T05:39:03;88294.91;;;1.67;72.46
60049;BME280;66154;45.544;6.756;2024-01-27T05:44:05;88294.81;;;1.64;72.88
60049;BME280;66154;45.544;6.756;2024-01-27T05:49:05;88302.50;;;1.60;73.04
60049;BME280;66154;45.544;6.756;2024-01-27T05:54:06;88298.34;;;1.56;72.16
60049;BME280;66154;45.544;6.756;2024-01-27T05:59:06;88301.94;;;1.51;72.74
60049;BME280;66154;45.544;6.756;2024-01-27T06:04:07;88301.84;;;1.48;71.94
60049;BME280;66154;45.544;6.756;2024-01-27T06:09:07;88312.84;;;1.45;72.31
60049;BME280;66154;45.544;6.756;2024-01-27T06:14:11;88309.78;;;1.39;72.32
60049;BME280;66154;45.544;6.756;2024-01-27T06:19:12;88320.13;;;1.39;72.35
60049;BME280;66154;45.544;6.756;2024-01-27T06:24:12;88311.38;;;1.44;71.68
60049;BME280;66154;45.544;6.756;2024-01-27T06:29:13;88308.34;;;1.42;72.47
60049;BME280;66154;45.544;6.756;2024-01-27T06:34:14;88318.97;;;1.37;71.75
60049;BME280;66154;45.544;6.756;2024-01-27T06:39:14;88324.47;;;1.35;72.12
60049;BME280;66154;45.544;6.756;2024-01-27T06:44:15;88316.28;;;1.33;72.07
60049;BME280;66154;45.544;6.756;2024-01-27T06:49:16;88320.63;;;1.29;72.25
60049;BME280;66154;45.544;6.756;2024-01-27T06:54:16;88329.41;;;1.25;72.00
60049;BME280;66154;45.544;6.756;2024-01-27T06:59:17;88323.47;;;1.24;72.13
60049;BME280;66154;45.544;6.756;2024-01-27T07:04:18;88326.38;;;1.23;71.65
60049;BME280;66154;45.544;6.756;2024-01-27T07:09:18;88326.38;;;1.23;71.61
60049;BME280;66154;45.544;6.756;2024-01-27T07:14:20;88319.28;;;1.20;72.10
60049;BME280;66154;45.544;6.756;2024-01-27T07:19:20;88324.38;;;1.16;71.40
60049;BME280;66154;45.544;6.756;2024-01-27T07:24:21;88327.97;;;1.12;71.37
60049;BME280;66154;45.544;6.756;2024-01-27T07:29:21;88319.78;;;1.10;71.80
60049;BME280;66154;45.544;6.756;2024-01-27T07:34:22;88316.84;;;1.11;71.57
60049;BME280;66154;45.544;6.756;2024-01-27T07:39:23;88318.75;;;1.14;71.43
60049;BME280;66154;45.544;6.756;2024-01-27T07:44:24;88330.66;;;1.15;71.76
60049;BME280;66154;45.544;6.756;2024-01-27T07:49:24;88326.63;;;1.18;71.84
60049;BME280;66154;45.544;6.756;2024-01-27T07:54:25;88325.97;;;1.21;71.42
60049;BME280;66154;45.544;6.756;2024-01-27T07:59:26;88324.22;;;1.25;71.29
60049;BME280;66154;45.544;6.756;2024-01-27T08:04:26;88331.31;;;1.28;71.80
60049;BME280;66154;45.544;6.756;2024-01-27T08:09:27;88327.75;;;1.32;71.25
60049;BME280;66154;45.544;6.756;2024-01-27T08:14:29;88325.56;;;1.34;70.99
60049;BME280;66154;45.544;6.756;2024-01-27T08:19:30;88325.22;;;1.36;71.19
60049;BME280;66154;45.544;6.756;2024-01-27T08:24:31;88331.59;;;1.38;70.60
60049;BME280;66154;45.544;6.756;2024-01-27T08:29:31;88325.09;;;1.44;71.06
60049;BME280;66154;45.544;6.756;2024-01-27T08:34:32;88329.59;;;1.47;71.57
60049;BME280;66154;45.544;6.756;2024-01-27T08:39:32;88325.25;;;1.51;70.85
60049;BME280;66154;45.544;6.756;2024-01-27T08:44:33;88329.09;;;1.57;71.35
60049;BME280;66154;45.544;6.756;2024-01-27T08:49:33;88324.06;;;1.64;71.58
60049;BME280;66154;45.544;6.756;2024-01-27T08:54:34;88317.97;;;1.72;71.09
60049;BME280;66154;45.544;6.756;2024-01-27T08:59:34;88317.47;;;1.82;71.15
60049;BME280;66154;45.544;6.756;2024-01-27T09:04:36;88320.63;;;1.92;70.41
60049;BME280;66154;45.544;6.756;2024-01-27T09:09:36;88324.03;;;2.11;68.89
60049;BME280;66154;45.544;6.756;2024-01-27T09:14:39;88336.63;;;2.28;66.09
60049;BME280;66154;45.544;6.756;2024-01-27T09:19:41;88349.16;;;2.42;68.82
60049;BME280;66154;45.544;6.756;2024-01-27T09:24:42;88345.69;;;2.53;70.45
60049;BME280;66154;45.544;6.756;2024-01-27T09:29:42;88352.53;;;2.61;68.24
60049;BME280;66154;45.544;6.756;2024-01-27T09:34:43;88360.13;;;2.70;71.30
60049;BME280;66154;45.544;6.756;2024-01-27T09:39:44;88353.66;;;2.80;71.32
60049;BME280;66154;45.544;6.756;2024-01-27T09:44:45;88333.16;;;2.94;70.41
60049;BME280;66154;45.544;6.756;2024-01-27T09:49:49;88331.91;;;3.07;68.82
60049;BME280;66154;45.544;6.756;2024-01-27T09:54:51;88322.44;;;3.14;67.69
60049;BME280;66154;45.544;6.756;2024-01-27T09:59:51;88327.81;;;3.25;59.90
60049;BME280;66154;45.544;6.756;2024-01-27T10:04:53;88336.88;;;3.34;69.51
60049;BME280;66154;45.544;6.756;2024-01-27T10:09:54;88321.50;;;3.45;65.96
60049;BME280;66154;45.544;6.756;2024-01-27T10:14:55;88331.03;;;3.60;69.50
60049;BME280;66154;45.544;6.756;2024-01-27T10:20:05;88331.34;;;3.78;71.76
60049;BME280;66154;45.544;6.756;2024-01-27T10:25:08;88319.69;;;3.94;71.08
60049;BME280;66154;45.544;6.756;2024-01-27T10:30:16;88335.53;;;4.08;66.89
60049;BME280;66154;45.544;6.756;2024-01-27T10:35:17;88332.41;;;4.22;68.77
60049;BME280;66154;45.544;6.756;2024-01-27T10:40:18;88325.88;;;4.35;67.32
60049;BME280;66154;45.544;6.756;2024-01-27T10:45:19;88334.22;;;4.47;71.52
60049;BME280;66154;45.544;6.756;2024-01-27T10:50:20;88326.97;;;4.60;70.50
60049;BME280;66154;45.544;6.756;2024-01-27T10:55:22;88319.28;;;4.71;71.00
60049;BME280;66154;45.544;6.756;2024-01-27T11:00:24;88318.00;;;4.84;67.92
60049;BME280;66154;45.544;6.756;2024-01-27T11:05:27;88320.84;;;5.05;70.08
60049;BME280;66154;45.544;6.756;2024-01-27T11:10:29;88313.53;;;5.17;69.00
60049;BME280;66154;45.544;6.756;2024-01-27T11:15:35;88313.72;;;5.31;61.74
60049;BME280;66154;45.544;6.756;2024-01-27T11:20:36;88302.69;;;5.45;66.37
60049;BME280;66154;45.544;6.756;2024-01-27T11:25:37;88306.16;;;5.60;71.93
60049;BME280;66154;45.544;6.756;2024-01-27T11:30:37;88302.97;;;5.77;71.31
60049;BME280;66154;45.544;6.756;2024-01-27T11:35:40;88303.94;;;6.02;67.57
60049;BME280;66154;45.544;6.756;2024-01-27T11:40:47;88312.41;;;6.32;70.60
60049;BME280;66154;45.544;6.756;2024-01-27T11:45:57;88305.88;;;6.59;64.80
60049;BME280;66154;45.544;6.756;2024-01-27T11:51:11;88309.41;;;6.88;65.58
60049;BME280;66154;45.544;6.756;2024-01-27T11:56:11;88302.44;;;7.13;70.19
60049;BME280;66154;45.544;6.756;2024-01-27T12:01:12;88300.28;;;7.36;69.27
60049;BME280;66154;45.544;6.756;2024-01-27T12:06:13;88296.19;;;7.53;70.19
60049;BME280;66154;45.544;6.756;2024-01-27T12:11:14;88284.69;;;7.71;70.99
60049;BME280;66154;45.544;6.756;2024-01-27T12:16:15;88277.97;;;7.88;71.25
60049;BME280;66154;45.544;6.756;2024-01-27T12:21:19;88274.22;;;8.03;72.92
60049;BME280;66154;45.544;6.756;2024-01-27T12:26:21;88272.72;;;8.19;70.33
60049;BME280;66154;45.544;6.756;2024-01-27T12:31:23;88266.34;;;8.84;62.65
60049;BME280;66154;45.544;6.756;2024-01-27T12:36:23;88262.16;;;9.87;76.14
60049;BME280;66154;45.544;6.756;2024-01-27T12:41:28;88258.81;;;10.85;78.20
60049;BME280;66154;45.544;6.756;2024-01-27T12:46:29;88259.41;;;11.67;79.03
60049;BME280;66154;45.544;6.756;2024-01-27T12:51:30;88249.84;;;12.07;74.05
60049;BME280;66154;45.544;6.756;2024-01-27T12:56:30;88247.47;;;12.16;77.39
60049;BME280;66154;45.544;6.756;2024-01-27T13:01:31;88250.59;;;12.34;69.57
60049;BME280;66154;45.544;6.756;2024-01-27T13:06:31;88243.44;;;12.58;70.54
60049;BME280;66154;45.544;6.756;2024-01-27T13:11:32;88236.06;;;12.96;66.13
60049;BME280;66154;45.544;6.756;2024-01-27T13:16:33;88236.72;;;13.42;72.58
60049;BME280;66154;45.544;6.756;2024-01-27T13:21:33;88229.19;;;13.80;76.06
60049;BME280;66154;45.544;6.756;2024-01-27T13:26:34;88218.94;;;14.18;73.59
60049;BME280;66154;45.544;6.756;2024-01-27T13:31:37;88221.47;;;14.57;79.00
60049;BME280;66154;45.544;6.756;2024-01-27T13:36:38;88213.66;;;14.98;76.92
60049;BME280;66154;45.544;6.756;2024-01-27T13:41:39;88206.22;;;15.38;76.73
60049;BME280;66154;45.544;6.756;2024-01-27T13:46:39;88202.00;;;15.69;74.01
60049;BME280;66154;45.544;6.756;2024-01-27T13:51:40;88192.41;;;16.13;68.13
60049;BME280;66154;45.544;6.756;2024-01-27T13:56:40;88197.72;;;16.51;79.99
60049;BME280;66154;45.544;6.756;2024-01-27T14:01:41;88198.25;;;16.71;71.20
60049;BME280;66154;45.544;6.756;2024-01-27T14:06:41;88207.91;;;16.77;70.03
60049;BME280;66154;45.544;6.756;2024-01-27T14:11:42;88201.50;;;17.00;72.06
60049;BME280;66154;45.544;6.756;2024-01-27T14:16:46;88199.09;;;16.80;78.86
60049;BME280;66154;45.544;6.756;2024-01-27T14:21:47;88203.88;;;15.56;72.86
60049;BME280;66154;45.544;6.756;2024-01-27T14:26:47;88201.25;;;14.15;72.53
60049;BME280;66154;45.544;6.756;2024-01-27T14:31:49;88199.97;;;12.89;62.94
60049;BME280;66154;45.544;6.756;2024-01-27T14:36:49;88202.75;;;11.82;63.75
60049;BME280;66154;45.544;6.756;2024-01-27T14:41:50;88204.91;;;11.01;67.20
60049;BME280;66154;45.544;6.756;2024-01-27T14:46:50;88202.91;;;10.34;70.97
60049;BME280;66154;45.544;6.756;2024-01-27T14:51:51;88202.91;;;9.82;65.98
60049;BME280;66154;45.544;6.756;2024-01-27T14:56:51;88205.81;;;9.37;68.32
60049;BME280;66154;45.544;6.756;2024-01-27T15:01:52;88206.72;;;9.02;67.86
60049;BME280;66154;45.544;6.756;2024-01-27T15:06:55;88211.69;;;8.72;62.96
60049;BME280;66154;45.544;6.756;2024-01-27T15:11:57;88210.25;;;8.46;63.75
60049;BME280;66154;45.544;6.756;2024-01-27T15:16:57;88212.91;;;8.25;63.82
60049;BME280;66154;45.544;6.756;2024-01-27T15:21:58;88214.38;;;8.08;68.30
60049;BME280;66154;45.544;6.756;2024-01-27T15:26:58;88226.34;;;7.95;64.16
60049;BME280;66154;45.544;6.756;2024-01-27T15:31:59;88242.41;;;7.83;64.84
60049;BME280;66154;45.544;6.756;2024-01-27T15:37:00;88244.28;;;7.72;65.35
60049;BME280;66154;45.544;6.756;2024-01-27T15:42:01;88237.16;;;7.55;67.78
60049;BME280;66154;45.544;6.756;2024-01-27T15:47:04;88234.84;;;7.29;64.64
60049;BME280;66154;45.544;6.756;2024-01-27T15:52:09;88250.44;;;7.01;65.49
60049;BME280;66154;45.544;6.756;2024-01-27T15:57:10;88256.69;;;6.75;65.96
60049;BME280;66154;45.544;6.756;2024-01-27T16:02:11;88259.94;;;6.51;67.40
60049;BME280;66154;45.544;6.756;2024-01-27T16:07:11;88259.41;;;6.28;65.65
60049;BME280;66154;45.544;6.756;2024-01-27T16:12:12;88260.03;;;6.07;62.14
60049;BME280;66154;45.544;6.756;2024-01-27T16:17:12;88268.09;;;5.92;62.58
60049;BME280;66154;45.544;6.756;2024-01-27T16:22:14;88275.75;;;5.74;63.71
60049;BME280;66154;45.544;6.756;2024-01-27T16:27:14;88279.78;;;5.65;67.34
60049;BME280;66154;45.544;6.756;2024-01-27T16:32:15;88284.97;;;5.61;61.76
60049;BME280;66154;45.544;6.756;2024-01-27T16:37:18;88300.53;;;5.54;65.33
60049;BME280;66154;45.544;6.756;2024-01-27T16:42:20;88305.69;;;5.47;63.80
60049;BME280;66154;45.544;6.756;2024-01-27T16:47:20;88317.53;;;5.41;64.34
60049;BME280;66154;45.544;6.756;2024-01-27T16:52:21;88316.34;;;5.35;64.51
60049;BME280;66154;45.544;6.756;2024-01-27T16:57:22;88320.38;;;5.29;67.37
60049;BME280;66154;45.544;6.756;2024-01-27T17:02:22;88321.06;;;5.22;60.98
60049;BME280;66154;45.544;6.756;2024-01-27T17:07:24;88325.09;;;5.16;59.70
60049;BME280;66154;45.544;6.756;2024-01-27T17:12:24;88327.66;;;5.13;66.34
60049;BME280;66154;45.544;6.756;2024-01-27T17:17:25;88322.72;;;5.04;66.98
60049;BME280;66154;45.544;6.756;2024-01-27T17:22:26;88328.13;;;4.92;60.75
60049;BME280;66154;45.544;6.756;2024-01-27T17:27:27;88319.44;;;4.81;68.05
60049;BME280;66154;45.544;6.756;2024-01-27T17:32:27;88319.69;;;4.73;59.75
60049;BME280;66154;45.544;6.756;2024-01-27T17:37:28;88333.44;;;4.70;67.52
60049;BME280;66154;45.544;6.756;2024-01-27T17:42:29;88331.84;;;4.61;66.36
60049;BME280;66154;45.544;6.756;2024-01-27T17:47:30;88323.94;;;4.54;67.64
60049;BME280;66154;45.544;6.756;2024-01-27T17:52:30;88323.09;;;4.47;65.24
60049;BME280;66154;45.544;6.756;2024-01-27T17:57:31;88328.19;;;4.40;63.79
60049;BME280;66154;45.544;6.756;2024-01-27T18:02:32;88331.09;;;4.35;67.77
60049;BME280;66154;45.544;6.756;2024-01-27T18:07:32;88325.78;;;4.28;64.22
60049;BME280;66154;45.544;6.756;2024-01-27T18:12:33;88328.28;;;4.21;64.78
60049;BME280;66154;45.544;6.756;2024-01-27T18:17:34;88337.06;;;4.13;65.55
60049;BME280;66154;45.544;6.756;2024-01-27T18:22:34;88343.28;;;4.05;67.43
60049;BME280;66154;45.544;6.756;2024-01-27T18:27:35;88348.34;;;3.98;67.45
60049;BME280;66154;45.544;6.756;2024-01-27T18:32:36;88342.69;;;3.92;66.38
60049;BME280;66154;45.544;6.756;2024-01-27T18:37:37;88347.44;;;3.87;65.06
60049;BME280;66154;45.544;6.756;2024-01-27T18:42:38;88345.16;;;3.82;66.50
60049;BME280;66154;45.544;6.756;2024-01-27T18:47:38;88348.44;;;3.79;68.22
60049;BME280;66154;45.544;6.756;2024-01-27T18:52:42;88355.41;;;3.75;65.36
60049;BME280;66154;45.544;6.756;2024-01-27T18:57:43;88352.41;;;3.72;64.26
60049;BME280;66154;45.544;6.756;2024-01-27T19:02:44;88354.19;;;3.68;66.04
60049;BME280;66154;45.544;6.756;2024-01-27T19:07:45;88353.00;;;3.62;65.44
60049;BME280;66154;45.544;6.756;2024-01-27T19:12:49;88350.31;;;3.59;64.65
60049;BME280;66154;45.544;6.756;2024-01-27T19:17:49;88365.44;;;3.53;65.13
60049;BME280;66154;45.544;6.756;2024-01-27T19:22:50;88355.00;;;3.50;67.38
60049;BME280;66154;45.544;6.756;2024-01-27T19:27:51;88362.03;;;3.49;66.73
60049;BME280;66154;45.544;6.756;2024-01-27T19:32:52;88361.72;;;3.51;63.21
60049;BME280;66154;45.544;6.756;2024-01-27T19:37:53;88362.78;;;3.50;64.51
60049;BME280;66154;45.544;6.756;2024-01-27T19:42:54;88370.53;;;3.46;65.06
60049;BME280;66154;45.544;6.756;2024-01-27T19:47:55;88369.72;;;3.42;64.80
60049;BME280;66154;45.544;6.756;2024-01-27T19:52:56;88372.97;;;3.39;64.97
60049;BME280;66154;45.544;6.756;2024-01-27T19:57:56;88370.66;;;3.34;64.33
60049;BME280;66154;45.544;6.756;2024-01-27T20:03:00;88378.00;;;3.29;63.82
60049;BME280;66154;45.544;6.756;2024-01-27T20:08:04;88370.13;;;3.25;64.56
60049;BME280;66154;45.544;6.756;2024-01-27T20:13:04;88367.47;;;3.22;64.84
60049;BME280;66154;45.544;6.756;2024-01-27T20:18:06;88363.72;;;3.19;63.68
60049;BME280;66154;45.544;6.756;2024-01-27T20:23:07;88360.63;;;3.14;64.08
60049;BME280;66154;45.544;6.756;2024-01-27T20:28:07;88365.38;;;3.08;63.92
60049;BME280;66154;45.544;6.756;2024-01-27T20:33:08;88369.72;;;3.04;65.87
60049;BME280;66154;45.544;6.756;2024-01-27T20:38:09;88370.81;;;3.03;62.92
60049;BME280;66154;45.544;6.756;2024-01-27T20:43:11;88369.25;;;2.99;57.02
60049;BME280;66154;45.544;6.756;2024-01-27T20:48:11;88371.50;;;3.00;58.20
60049;BME280;66154;45.544;6.756;2024-01-27T20:53:14;88371.91;;;3.02;62.37
60049;BME280;66154;45.544;6.756;2024-01-27T20:58:15;88371.16;;;3.02;66.41
60049;BME280;66154;45.544;6.756;2024-01-27T21:03:15;88362.88;;;2.96;65.09
60049;BME280;66154;45.544;6.756;2024-01-27T21:08:19;88354.63;;;2.91;64.36
60049;BME280;66154;45.544;6.756;2024-01-27T21:13:20;88365.25;;;2.86;64.22
60049;BME280;66154;45.544;6.756;2024-01-27T21:18:20;88365.19;;;2.82;63.55
60049;BME280;66154;45.544;6.756;2024-01-27T21:23:21;88359.25;;;2.82;64.82
60049;BME280;66154;45.544;6.756;2024-01-27T21:28:21;88354.41;;;2.80;63.60
60049;BME280;66154;45.544;6.756;2024-01-27T21:33:22;88345.78;;;2.76;63.67
60049;BME280;66154;45.544;6.756;2024-01-27T21:38:22;88347.91;;;2.70;63.08
60049;BME280;66154;45.544;6.756;2024-01-27T21:43:23;88345.25;;;2.67;63.52
60049;BME280;66154;45.544;6.756;2024-01-27T21:48:23;88350.44;;;2.67;64.18
60049;BME280;66154;45.544;6.756;2024-01-27T21:53:25;88352.63;;;2.65;62.16
60049;BME280;66154;45.544;6.756;2024-01-27T21:58:25;88342.16;;;2.61;62.70
60049;BME280;66154;45.544;6.756;2024-01-27T22:03:26;88351.38;;;2.59;65.39
60049;BME280;66154;45.544;6.756;2024-01-27T22:08:26;88355.81;;;2.58;62.97
60049;BME280;66154;45.544;6.756;2024-01-27T22:13:27;88350.97;;;2.57;63.14
60049;BME280;66154;45.544;6.756;2024-01-27T22:18:27;88353.22;;;2.58;64.13
60049;BME280;66154;45.544;6.756;2024-01-27T22:23:30;88347.28;;;2.58;63.85
60049;BME280;66154;45.544;6.756;2024-01-27T22:28:31;88346.88;;;2.56;63.63
60049;BME280;66154;45.544;6.756;2024-01-27T22:33:31;88357.91;;;2.53;62.17
60049;BME280;66154;45.544;6.756;2024-01-27T22:38:33;88356.34;;;2.48;64.17
60049;BME280;66154;45.544;6.756;2024-01-27T22:43:33;88354.06;;;2.47;62.35
60049;BME280;66154;45.544;6.756;2024-01-27T22:48:34;88351.81;;;2.45;62.70
60049;BME280;66154;45.544;6.756;2024-01-27T22:53:34;88347.66;;;2.41;63.22
60049;BME280;66154;45.544;6.756;2024-01-27T22:58:35;88341.31;;;2.38;61.76
60049;BME280;66154;45.544;6.756;2024-01-27T23:03:35;88346.16;;;2.40;63.45
60049;BME280;66154;45.544;6.756;2024-01-27T23:08:36;88349.09;;;2.38;62.94
60049;BME280;66154;45.544;6.756;2024-01-27T23:13:36;88348.69;;;2.36;64.26
60049;BME280;66154;45.544;6.756;2024-01-27T23:18:37;88343.91;;;2.38;63.99
60049;BME280;66154;45.544;6.756;2024-01-27T23:23:38;88336.59;;;2.44;59.21
60049;BME280;66154;45.544;6.756;2024-01-27T23:28:38;88339.59;;;2.46;62.83
60049;BME280;66154;45.544;6.756;2024-01-27T23:33:39;88331.41;;;2.44;63.20
60049;BME280;66154;45.544;6.756;2024-01-27T23:38:40;88327.75;;;2.45;62.41
60049;BME280;66154;45.544;6.756;2024-01-27T23:43:40;88336.94;;;2.42;62.18
60049;BME280;66154;45.544;6.756;2024-01-27T23:48:41;88342.06;;;2.39;62.81
60049;BME280;66154;45.544;6.756;2024-01-27T23:53:41;88337.53;;;2.36;61.92
60049;BME280;66154;45.544;6.756;2024-01-27T23:58:43;88333.44;;;2.35;61.61
